Lexington, IL

9:14 AM CST on November 28, 2014 (GMT -0600)
Across From Lincoln College | Change Station
CLOSE
Current Station
Personal Weather Station
Location: Normal, IL
Elevation: 827 ft
Nearby Weather Stations

Elev 827 ft 40.53 °N, 89.00 °W | Updated 10 minutes ago

Partly Cloudy
Partly Cloudy
21.1 °F
Feels Like 9 °F
N
11.7
Wind Variable Wind from South
Gusts 16.6 mph

Today
High -- | Low -- °F
--% Chance of Precip.
Yesterday
High -- | Low -- °F
Precip. -- in
6:56 AM 4:29 PM
Waxing Crescent, 41% visible
Pressure 30.30 in
Visibility 10.0 miles
Clouds Clear
Windchill 9 °F
Dew Point 21 °F
Humidity 99%
Rainfall 0.00 in
Snow Depth Not available.
UV 1 out of 12
Pollen .10 out of 12
Air Quality Not available.
Flu Activity Not available.
METAR KBMI 281456Z 16013KT 10SM CLR M05/M08 A3022 RMK AO2 58023 T10501077 SLP260

More Conditions Fewer Conditions

Pressure 30.30 in
Visibility 10.0 miles
Clouds Clear
Windchill 9 °F
Dew Point 21 °F
Humidity 99%
Rainfall 0.00 in
Snow Depth Not available.
UV 1 out of 12
Pollen .10 out of 12
Air Quality Not available.
Flu Activity Not available.
METAR KBMI 281456Z 16013KT 10SM CLR M05/M08 A3022 RMK AO2 58023 T10501077 SLP260

More Conditions Fewer Conditions

10-Day Weather Forecast

Almanac

Astronomy

Nov. 28, 2014 Rise Set
Actual Time
Civil Twilight
Nautical Twilight
Astronomical Twilight
Moon
Length of Visible Light
Length of Day
Tomorrow will be .
, % of the Moon is Illuminated

Today's Extremes

State Highs State Lows

Community

WunderPhotos

Upload Photos

1,774,227 photos uploaded!

WunderBlogs® & News

Nearby

Air Quality

  Air Quality AQ Index Pollutant
Not available.

Snow Depth

Station Depth Elevation

Earthquake Activity

City Distance Mag. Time & Date
Minimum magnitude displayed is 2.5.

Coastal Water Temperatures

Place Temperature

Nearby Weather Stations